createdAt,value
2017-11-27T00:02:04.076Z,83.34
2017-11-27T00:04:31.662Z,83.19
2017-11-27T00:06:59.321Z,83.08
2017-11-27T00:09:27.179Z,83.46
2017-11-27T00:11:54.761Z,83.44
2017-11-27T00:14:22.380Z,83.49
2017-11-27T00:16:49.984Z,83.30
2017-11-27T00:19:17.828Z,83.11
2017-11-27T00:21:45.465Z,83.13
2017-11-27T00:24:13.046Z,83.10
2017-11-27T00:26:40.626Z,82.62
2017-11-27T00:29:08.240Z,82.06
2017-11-27T00:31:35.890Z,82.35
2017-11-27T00:34:03.503Z,82.09
2017-11-27T00:36:31.940Z,82.08
2017-11-27T00:38:59.570Z,81.75
2017-11-27T00:41:27.175Z,81.94
2017-11-27T00:43:54.859Z,82.02
2017-11-27T00:46:22.466Z,82.10
2017-11-27T00:48:50.069Z,81.96
2017-11-27T00:51:17.693Z,82.03
2017-11-27T00:53:45.637Z,82.05
2017-11-27T00:56:25.268Z,82.02
2017-11-27T00:58:52.851Z,82.00
2017-11-27T01:01:20.860Z,82.08
2017-11-27T01:03:48.470Z,81.87
2017-11-27T01:06:16.053Z,81.87
2017-11-27T01:08:43.893Z,82.25
2017-11-27T01:11:11.500Z,81.94
2017-11-27T01:13:39.073Z,82.03
2017-11-27T01:16:06.665Z,82.09
2017-11-27T01:18:34.292Z,82.04
2017-11-27T01:21:01.885Z,81.89
2017-11-27T01:23:29.465Z,82.00
2017-11-27T01:25:57.106Z,81.78
2017-11-27T01:28:24.694Z,81.74
2017-11-27T01:30:52.280Z,81.87
2017-11-27T01:33:19.904Z,81.64
2017-11-27T01:35:47.503Z,81.78
2017-11-27T01:38:15.102Z,81.87
2017-11-27T01:40:42.998Z,81.46
2017-11-27T01:43:10.869Z,81.56
2017-11-27T01:45:38.462Z,81.85
2017-11-27T01:48:06.102Z,82.01
2017-11-27T01:50:33.717Z,82.08
2017-11-27T01:53:01.315Z,81.91
2017-11-27T01:55:28.980Z,81.80
2017-11-27T01:57:56.566Z,81.78
2017-11-27T02:00:24.141Z,81.83
2017-11-27T02:02:51.782Z,81.66
2017-11-27T02:05:19.383Z,81.34
2017-11-27T02:07:46.982Z,81.41
2017-11-27T02:10:14.604Z,81.27
2017-11-27T02:12:42.526Z,81.70
2017-11-27T02:15:10.121Z,81.41
2017-11-27T02:17:37.759Z,81.41
2017-11-27T02:20:05.337Z,81.21
2017-11-27T02:22:32.928Z,81.33
2017-11-27T02:25:00.558Z,80.84
2017-11-27T02:27:28.149Z,80.79
2017-11-27T02:29:55.739Z,80.93
2017-11-27T02:32:23.729Z,80.93
2017-11-27T02:34:51.314Z,80.76
2017-11-27T02:37:18.931Z,80.48
2017-11-27T02:39:46.811Z,80.44
2017-11-27T02:42:14.407Z,80.01
2017-11-27T02:44:42.343Z,79.82
2017-11-27T02:47:13.891Z,79.95
2017-11-27T02:49:41.530Z,79.96
2017-11-27T02:52:09.141Z,79.86
2017-11-27T02:54:36.774Z,79.66
2017-11-27T02:57:04.364Z,79.46
2017-11-27T02:59:31.973Z,79.56
2017-11-27T03:01:59.608Z,79.26
2017-11-27T03:04:27.200Z,79.33
2017-11-27T03:06:54.794Z,79.21
2017-11-27T03:09:22.468Z,79.28
2017-11-27T03:11:50.322Z,79.12
2017-11-27T03:14:17.973Z,79.18
2017-11-27T03:16:45.594Z,79.24
2017-11-27T03:19:13.212Z,79.17
2017-11-27T03:21:41.191Z,78.90
2017-11-27T03:24:08.850Z,78.92
2017-11-27T03:26:36.444Z,78.53
2017-11-27T03:29:04.038Z,78.70
2017-11-27T03:31:31.668Z,78.58
2017-11-27T03:33:59.245Z,78.77
2017-11-27T03:36:26.853Z,78.83
2017-11-27T03:38:54.789Z,78.45
2017-11-27T03:41:22.373Z,78.46
2017-11-27T03:43:50.268Z,77.99
2017-11-27T03:46:18.139Z,78.09
2017-11-27T03:48:45.722Z,77.94
2017-11-27T03:51:13.649Z,78.06
2017-11-27T03:53:41.278Z,78.05
2017-11-27T03:56:08.890Z,78.20
2017-11-27T03:58:36.504Z,78.12
2017-11-27T04:01:04.149Z,78.19
2017-11-27T04:03:31.751Z,78.10
2017-11-27T04:05:59.343Z,77.78
2017-11-27T04:08:26.968Z,78.10
2017-11-27T04:10:54.557Z,78.15
2017-11-27T04:13:22.137Z,78.08
2017-11-27T04:15:49.779Z,78.01
2017-11-27T04:18:17.381Z,78.04
2017-11-27T04:20:45.306Z,78.25
2017-11-27T04:23:12.981Z,78.19
2017-11-27T04:25:40.585Z,78.35
2017-11-27T04:28:08.499Z,78.22
2017-11-27T04:30:36.137Z,78.16
2017-11-27T04:33:04.030Z,77.67
2017-11-27T04:35:31.895Z,77.22
2017-11-27T04:37:59.558Z,77.42
2017-11-27T04:40:27.142Z,77.22
2017-11-27T04:42:55.086Z,77.00
2017-11-27T04:45:23.053Z,77.19
2017-11-27T04:47:50.927Z,77.31
2017-11-27T04:50:18.521Z,77.34
2017-11-27T04:52:46.150Z,77.36
2017-11-27T04:55:13.749Z,77.83
2017-11-27T04:57:41.334Z,77.72
2017-11-27T05:00:08.978Z,77.94
2017-11-27T05:02:36.602Z,78.01
2017-11-27T05:05:04.249Z,78.13
2017-11-27T05:07:31.876Z,78.08
2017-11-27T05:09:59.470Z,78.29
2017-11-27T05:12:27.063Z,78.55
2017-11-27T05:14:54.693Z,78.73
2017-11-27T05:17:22.295Z,79.16
2017-11-27T05:19:49.879Z,79.06
2017-11-27T05:22:17.504Z,79.23
2017-11-27T05:24:45.143Z,79.33
2017-11-27T05:27:12.731Z,79.37
2017-11-27T05:29:40.694Z,79.71
2017-11-27T05:32:08.289Z,80.05
2017-11-27T05:34:35.913Z,80.00
2017-11-27T05:37:03.553Z,80.26
2017-11-27T05:39:31.146Z,80.30
2017-11-27T05:41:58.746Z,80.11
2017-11-27T05:44:26.614Z,80.05
2017-11-27T05:46:54.201Z,80.12
2017-11-27T05:49:21.793Z,80.30
2017-11-27T05:51:49.428Z,80.50
2017-11-27T05:54:17.022Z,80.54
2017-11-27T05:56:44.617Z,80.52
2017-11-27T05:59:12.245Z,80.85
2017-11-27T06:01:39.822Z,80.98
2017-11-27T06:04:07.428Z,80.75
2017-11-27T06:06:35.053Z,81.16
2017-11-27T06:09:02.654Z,81.14
2017-11-27T06:11:30.243Z,81.14
2017-11-27T06:13:57.870Z,81.26
2017-11-27T06:16:25.448Z,81.31
2017-11-27T06:18:53.066Z,81.60
2017-11-27T06:21:20.999Z,81.41
2017-11-27T06:23:48.844Z,81.16
2017-11-27T06:26:16.436Z,81.78
2017-11-27T06:28:44.088Z,81.73
2017-11-27T06:31:11.683Z,81.98
2017-11-27T06:33:39.519Z,82.25
2017-11-27T06:36:07.154Z,82.70
2017-11-27T06:38:34.763Z,82.72
2017-11-27T06:41:02.378Z,82.40
2017-11-27T06:43:30.017Z,82.44
2017-11-27T06:45:57.615Z,82.46
2017-11-27T06:48:25.239Z,82.29
2017-11-27T06:50:52.878Z,82.51
2017-11-27T06:53:20.477Z,82.40
2017-11-27T06:55:48.382Z,82.66
2017-11-27T06:58:16.027Z,82.43
2017-11-27T07:00:43.676Z,82.36
2017-11-27T07:03:11.273Z,82.37
2017-11-27T07:05:38.899Z,82.31
2017-11-27T07:08:06.494Z,82.29
2017-11-27T07:10:34.078Z,82.16
2017-11-27T07:13:01.705Z,82.18
2017-11-27T07:15:29.293Z,82.45
2017-11-27T07:17:56.896Z,82.69
2017-11-27T07:20:24.582Z,82.56
2017-11-27T07:22:52.475Z,82.37
2017-11-27T07:25:20.075Z,82.30
2017-11-27T07:27:47.708Z,82.48
2017-11-27T07:30:15.308Z,82.53
2017-11-27T07:32:42.964Z,82.52
2017-11-27T07:35:10.592Z,82.73
2017-11-27T07:37:43.721Z,82.81
2017-11-27T07:40:11.417Z,83.18
2017-11-27T07:42:39.062Z,83.27
2017-11-27T07:45:06.684Z,83.27
2017-11-27T07:47:34.329Z,82.99
2017-11-27T07:50:01.923Z,82.89
2017-11-27T07:52:33.573Z,82.88
2017-11-27T07:55:01.194Z,82.78
2017-11-27T07:57:29.114Z,82.69
2017-11-27T07:59:58.495Z,82.59
2017-11-27T08:02:26.354Z,82.13
2017-11-27T08:04:53.950Z,82.11
2017-11-27T08:07:21.597Z,81.67
2017-11-27T08:09:49.464Z,81.93
2017-11-27T08:12:17.057Z,81.84
2017-11-27T08:14:44.970Z,81.60
2017-11-27T08:17:12.630Z,81.05
2017-11-27T08:19:40.497Z,81.20
2017-11-27T08:22:09.004Z,81.37
2017-11-27T08:24:36.616Z,81.24
2017-11-27T08:27:04.214Z,81.52
2017-11-27T08:29:31.889Z,80.78
2017-11-27T08:31:59.756Z,80.18
2017-11-27T08:34:27.621Z,80.37
2017-11-27T08:36:55.276Z,80.30
2017-11-27T08:39:23.247Z,80.31
2017-11-27T08:41:50.819Z,78.95
2017-11-27T08:44:18.470Z,78.77
2017-11-27T08:46:46.070Z,78.63
2017-11-27T08:49:14.002Z,78.88
2017-11-27T08:51:41.682Z,78.50
2017-11-27T08:54:09.304Z,78.49
2017-11-27T08:56:36.889Z,78.30
2017-11-27T08:59:04.529Z,78.54
2017-11-27T09:01:32.112Z,78.52
2017-11-27T09:03:59.973Z,78.67
2017-11-27T09:06:27.615Z,78.75
2017-11-27T09:08:55.233Z,78.67
2017-11-27T09:11:22.965Z,78.39
2017-11-27T09:13:50.935Z,78.27
2017-11-27T09:16:18.799Z,78.39
2017-11-27T09:18:46.404Z,78.41
2017-11-27T09:21:14.044Z,77.95
2017-11-27T09:23:41.655Z,77.79
2017-11-27T09:26:09.250Z,77.38
2017-11-27T09:28:36.877Z,77.64
2017-11-27T09:31:04.494Z,78.09
2017-11-27T09:33:32.221Z,78.15
2017-11-27T09:36:00.105Z,77.60
2017-11-27T09:38:27.756Z,77.61
2017-11-27T09:40:55.370Z,77.35
2017-11-27T09:43:23.014Z,77.49
2017-11-27T09:45:50.593Z,77.51
2017-11-27T09:48:18.188Z,77.45
2017-11-27T09:50:46.083Z,77.80
2017-11-27T09:53:13.949Z,77.57
2017-11-27T09:55:41.818Z,76.98
2017-11-27T09:58:09.470Z,76.87
2017-11-27T10:00:37.068Z,77.02
2017-11-27T10:03:04.914Z,76.98
2017-11-27T10:05:33.793Z,77.25
2017-11-27T10:08:01.408Z,76.96
2017-11-27T10:10:29.336Z,76.37
2017-11-27T10:12:56.969Z,75.90
2017-11-27T10:15:24.581Z,75.89
2017-11-27T10:17:52.188Z,76.07
2017-11-27T10:20:20.089Z,75.59
2017-11-27T10:22:47.725Z,75.33
2017-11-27T10:25:15.321Z,74.14
2017-11-27T10:27:42.949Z,74.21
2017-11-27T10:30:10.576Z,73.99
2017-11-27T10:32:38.574Z,73.93
2017-11-27T10:35:07.626Z,73.80
2017-11-27T10:37:35.982Z,73.55
2017-11-27T10:40:03.665Z,73.71
2017-11-27T10:42:31.312Z,73.55
2017-11-27T10:44:58.914Z,72.89
2017-11-27T10:47:26.549Z,72.65
2017-11-27T10:49:54.267Z,72.68
2017-11-27T10:52:21.883Z,72.34
2017-11-27T10:54:49.831Z,72.61
2017-11-27T10:57:17.703Z,72.41
2017-11-27T10:59:45.312Z,72.83
2017-11-27T11:02:12.923Z,72.42
2017-11-27T11:04:40.681Z,71.87
2017-11-27T11:07:08.558Z,72.19
2017-11-27T11:09:36.141Z,72.00
2017-11-27T11:12:03.771Z,72.07
2017-11-27T11:14:31.375Z,71.82
2017-11-27T11:16:59.029Z,71.67
2017-11-27T11:19:26.661Z,71.32
2017-11-27T11:21:54.276Z,72.08
2017-11-27T11:24:21.881Z,72.00
2017-11-27T11:26:49.508Z,72.45
2017-11-27T11:29:17.106Z,72.57
2017-11-27T11:31:44.701Z,72.62
2017-11-27T11:34:12.333Z,72.01
2017-11-27T11:36:40.215Z,71.25
2017-11-27T11:39:07.805Z,71.01
2017-11-27T11:41:35.441Z,70.90
2017-11-27T11:44:03.030Z,70.69
2017-11-27T11:46:30.642Z,70.63
2017-11-27T11:48:58.261Z,70.59
2017-11-27T11:51:25.904Z,70.21
2017-11-27T11:53:53.517Z,70.76
2017-11-27T11:56:21.211Z,70.67
2017-11-27T11:58:48.794Z,70.43
2017-11-27T12:01:16.398Z,70.46
2017-11-27T12:03:44.030Z,70.75
2017-11-27T12:06:11.968Z,70.70
2017-11-27T12:08:39.557Z,70.49
2017-11-27T12:11:07.203Z,70.08
2017-11-27T12:13:34.799Z,70.18
2017-11-27T12:16:02.720Z,69.72
2017-11-27T12:18:30.351Z,69.65
2017-11-27T12:20:57.987Z,69.83
2017-11-27T12:23:25.625Z,69.61
2017-11-27T12:25:53.265Z,69.74
2017-11-27T12:28:20.889Z,69.12
2017-11-27T12:30:48.791Z,69.54
2017-11-27T12:33:16.406Z,69.25
2017-11-27T12:35:44.001Z,69.38
2017-11-27T12:38:11.617Z,68.94
2017-11-27T12:40:39.257Z,69.26
2017-11-27T12:43:06.847Z,68.48
2017-11-27T12:45:34.493Z,69.04
2017-11-27T12:48:03.041Z,69.08
2017-11-27T12:50:30.718Z,69.12
2017-11-27T12:52:58.305Z,68.89
2017-11-27T12:55:25.939Z,69.46
2017-11-27T12:57:53.573Z,69.43
2017-11-27T13:00:21.485Z,69.37
2017-11-27T13:02:49.122Z,69.85
2017-11-27T13:05:17.010Z,69.50
2017-11-27T13:07:44.597Z,69.33
2017-11-27T13:10:12.259Z,69.24
2017-11-27T13:12:39.893Z,69.39
2017-11-27T13:15:07.482Z,69.35
2017-11-27T13:17:35.118Z,69.69
2017-11-27T13:20:02.700Z,69.62
2017-11-27T13:22:30.302Z,69.50
2017-11-27T13:24:57.962Z,69.55
2017-11-27T13:27:25.552Z,69.35
2017-11-27T13:29:53.133Z,69.07
2017-11-27T13:32:20.774Z,69.19
2017-11-27T13:34:48.371Z,69.44
2017-11-27T13:37:15.957Z,69.60
2017-11-27T13:39:43.594Z,70.39
2017-11-27T13:42:11.529Z,70.69
2017-11-27T13:44:39.108Z,71.58
2017-11-27T13:47:06.733Z,72.31
2017-11-27T13:49:34.363Z,73.34
2017-11-27T13:52:01.970Z,74.29
2017-11-27T13:54:29.642Z,75.84
2017-11-27T13:56:57.246Z,77.01
2017-11-27T13:59:24.923Z,77.90
2017-11-27T14:01:52.540Z,78.08
2017-11-27T14:04:20.126Z,79.31
2017-11-27T14:06:47.721Z,80.03
2017-11-27T14:09:15.346Z,82.17
2017-11-27T14:11:42.959Z,81.49
2017-11-27T14:14:10.567Z,81.96
2017-11-27T14:16:38.212Z,83.12
2017-11-27T14:19:05.870Z,83.26
2017-11-27T14:21:33.736Z,84.04
2017-11-27T14:24:01.351Z,83.83
2017-11-27T14:26:29.205Z,84.05
2017-11-27T14:28:56.801Z,84.46
2017-11-27T14:31:24.437Z,85.29
2017-11-27T14:33:52.020Z,85.61
2017-11-27T14:36:19.601Z,85.69
2017-11-27T14:38:47.243Z,85.26
2017-11-27T14:41:14.824Z,85.68
2017-11-27T14:43:42.802Z,86.67
2017-11-27T14:46:10.437Z,86.85
2017-11-27T14:48:38.043Z,86.74
2017-11-27T14:51:05.634Z,87.54
2017-11-27T14:53:33.265Z,86.96
2017-11-27T14:56:01.124Z,86.86
2017-11-27T14:58:28.892Z,87.44
2017-11-27T15:00:56.514Z,87.40
2017-11-27T15:03:24.109Z,87.28
2017-11-27T15:05:51.977Z,87.68
2017-11-27T15:08:20.426Z,87.57
2017-11-27T15:10:48.027Z,88.17
2017-11-27T15:13:15.889Z,87.71
2017-11-27T15:15:43.522Z,87.63
2017-11-27T15:18:11.105Z,87.15
2017-11-27T15:20:38.983Z,87.66
2017-11-27T15:23:06.657Z,87.64
2017-11-27T15:25:34.258Z,87.78
2017-11-27T15:28:01.883Z,88.28
2017-11-27T15:30:29.852Z,87.41
2017-11-27T15:32:57.471Z,87.83
2017-11-27T15:35:25.051Z,88.20
2017-11-27T15:37:52.694Z,88.06
2017-11-27T15:40:20.539Z,87.76
2017-11-27T15:42:48.460Z,87.55
2017-11-27T15:45:16.139Z,88.25
2017-11-27T15:47:43.746Z,88.33
2017-11-27T15:50:11.373Z,88.16
2017-11-27T15:52:39.055Z,88.68
2017-11-27T15:55:06.647Z,88.54
2017-11-27T15:57:34.244Z,88.49
2017-11-27T16:00:01.869Z,88.51
2017-11-27T16:02:29.463Z,89.10
2017-11-27T16:04:57.421Z,89.09
2017-11-27T16:07:25.041Z,88.86
2017-11-27T16:09:52.978Z,88.71
2017-11-27T16:12:20.929Z,89.17
2017-11-27T16:14:48.569Z,89.08
2017-11-27T16:17:16.169Z,89.41
2017-11-27T16:19:43.761Z,89.08
2017-11-27T16:22:11.385Z,89.77
2017-11-27T16:24:39.052Z,89.52
2017-11-27T16:27:06.901Z,89.72
2017-11-27T16:29:34.526Z,89.97
2017-11-27T16:32:02.113Z,90.34
2017-11-27T16:34:29.702Z,89.62
2017-11-27T16:36:57.343Z,89.56
2017-11-27T16:39:24.945Z,90.21
2017-11-27T16:41:52.548Z,90.14
2017-11-27T16:44:20.185Z,89.96
2017-11-27T16:46:47.808Z,90.25
2017-11-27T16:49:15.673Z,90.27
2017-11-27T16:51:43.336Z,90.47
2017-11-27T16:54:10.935Z,90.13
2017-11-27T16:56:38.555Z,90.22
2017-11-27T16:59:06.185Z,90.46
2017-11-27T17:01:33.943Z,90.64
2017-11-27T17:04:01.544Z,90.50
2017-11-27T17:06:29.192Z,90.77
2017-11-27T17:08:56.823Z,90.37
2017-11-27T17:11:24.418Z,90.65
2017-11-27T17:13:52.057Z,90.95
2017-11-27T17:16:19.682Z,90.67
2017-11-27T17:18:47.274Z,90.94
2017-11-27T17:21:14.913Z,90.68
2017-11-27T17:23:42.554Z,91.16
2017-11-27T17:26:10.982Z,90.97
2017-11-27T17:28:38.612Z,91.18
2017-11-27T17:31:06.206Z,91.31
2017-11-27T17:33:33.818Z,91.15
2017-11-27T17:36:01.458Z,91.35
2017-11-27T17:38:29.445Z,91.12
2017-11-27T17:40:57.042Z,91.28
2017-11-27T17:43:24.705Z,91.17
2017-11-27T17:45:52.330Z,91.51
2017-11-27T17:48:19.942Z,91.44
2017-11-27T17:50:47.572Z,91.57
2017-11-27T17:53:15.237Z,91.55
2017-11-27T17:55:42.839Z,91.75
2017-11-27T17:58:10.462Z,91.92
2017-11-27T18:00:38.098Z,92.12
2017-11-27T18:03:05.683Z,92.11
2017-11-27T18:05:33.330Z,92.23
2017-11-27T18:08:01.301Z,92.10
2017-11-27T18:10:28.881Z,92.12
2017-11-27T18:12:56.522Z,91.79
2017-11-27T18:15:24.105Z,91.76
2017-11-27T18:17:51.747Z,92.05
2017-11-27T18:20:19.402Z,92.09
2017-11-27T18:22:47.043Z,91.86
2017-11-27T18:25:14.669Z,91.98
2017-11-27T18:27:42.601Z,92.16
2017-11-27T18:30:10.189Z,92.24
2017-11-27T18:32:37.793Z,92.14
2017-11-27T18:35:05.434Z,92.32
2017-11-27T18:37:33.154Z,92.00
2017-11-27T18:40:00.747Z,92.16
2017-11-27T18:42:28.507Z,92.13
2017-11-27T18:44:57.469Z,91.78
2017-11-27T18:47:25.117Z,92.22
2017-11-27T18:49:52.867Z,92.40
2017-11-27T18:52:20.767Z,92.44
2017-11-27T18:54:48.369Z,92.63
2017-11-27T18:57:15.984Z,92.63
2017-11-27T18:59:43.596Z,92.32
2017-11-27T19:02:11.197Z,92.58
2017-11-27T19:04:38.849Z,92.28
2017-11-27T19:07:06.519Z,92.60
2017-11-27T19:09:34.114Z,92.65
2017-11-27T19:12:01.742Z,92.70
2017-11-27T19:14:29.628Z,92.52
2017-11-27T19:16:57.269Z,92.51
2017-11-27T19:19:25.161Z,92.47
2017-11-27T19:21:52.758Z,92.15
2017-11-27T19:24:23.357Z,92.42
2017-11-27T19:26:51.019Z,92.51
2017-11-27T19:29:18.632Z,92.45
2017-11-27T19:31:47.297Z,92.63
2017-11-27T19:34:14.921Z,92.67
2017-11-27T19:36:42.532Z,92.38
2017-11-27T19:39:10.120Z,92.14
2017-11-27T19:41:38.156Z,92.23
2017-11-27T19:44:05.830Z,92.71
2017-11-27T19:46:33.761Z,92.59
2017-11-27T19:49:01.426Z,92.35
2017-11-27T19:51:29.049Z,92.27
2017-11-27T19:53:57.563Z,92.54
2017-11-27T19:56:25.206Z,92.50
2017-11-27T19:58:52.854Z,92.33
2017-11-27T20:01:20.507Z,92.30
2017-11-27T20:03:48.139Z,92.35
2017-11-27T20:06:15.732Z,92.51
2017-11-27T20:08:44.691Z,92.65
2017-11-27T20:11:12.643Z,92.49
2017-11-27T20:13:40.250Z,92.74
2017-11-27T20:16:07.903Z,92.82
2017-11-27T20:18:35.544Z,92.54
2017-11-27T20:21:03.137Z,92.59
2017-11-27T20:23:30.742Z,92.75
2017-11-27T20:25:58.378Z,92.78
2017-11-27T20:28:26.289Z,92.66
2017-11-27T20:30:53.886Z,92.63
2017-11-27T20:33:21.817Z,92.94
2017-11-27T20:35:49.413Z,92.95
2017-11-27T20:38:17.347Z,92.96
2017-11-27T20:40:45.012Z,93.17
2017-11-27T20:43:12.619Z,93.13
2017-11-27T20:45:40.235Z,93.00
2017-11-27T20:48:07.901Z,92.62
2017-11-27T20:50:35.489Z,92.61
2017-11-27T20:53:03.098Z,92.45
2017-11-27T20:55:30.730Z,92.49
2017-11-27T20:57:58.353Z,92.09
2017-11-27T21:00:25.950Z,92.31
2017-11-27T21:02:58.928Z,92.35
2017-11-27T21:05:26.783Z,91.92
2017-11-27T21:07:54.382Z,92.02
2017-11-27T21:10:22.120Z,92.09
2017-11-27T21:12:49.724Z,91.97
2017-11-27T21:15:17.320Z,91.74
2017-11-27T21:17:44.946Z,91.45
2017-11-27T21:20:12.540Z,91.57
2017-11-27T21:22:40.143Z,91.63
2017-11-27T21:25:07.777Z,91.49
2017-11-27T21:27:35.362Z,91.25
2017-11-27T21:30:04.861Z,91.18
2017-11-27T21:32:32.797Z,91.36
2017-11-27T21:35:00.397Z,90.98
2017-11-27T21:37:28.036Z,90.95
2017-11-27T21:39:55.682Z,90.79
2017-11-27T21:42:23.267Z,90.69
2017-11-27T21:44:50.886Z,90.61
2017-11-27T21:47:18.533Z,90.29
2017-11-27T21:49:46.124Z,90.46
2017-11-27T21:52:13.729Z,90.29
2017-11-27T21:54:41.416Z,90.48
2017-11-27T21:57:09.029Z,90.40
2017-11-27T21:59:36.637Z,90.30
2017-11-27T22:02:04.264Z,90.21
2017-11-27T22:04:32.132Z,90.01
2017-11-27T22:06:59.818Z,89.78
2017-11-27T22:09:27.437Z,89.79
2017-11-27T22:11:55.014Z,89.41
2017-11-27T22:14:22.670Z,89.37
2017-11-27T22:16:50.290Z,89.18
2017-11-27T22:19:17.880Z,89.11
2017-11-27T22:21:45.472Z,89.28
2017-11-27T22:24:13.412Z,88.98
2017-11-27T22:26:41.021Z,89.20
2017-11-27T22:29:08.742Z,89.35
2017-11-27T22:31:36.419Z,89.00
2017-11-27T22:34:04.168Z,89.36
2017-11-27T22:36:32.061Z,89.47
2017-11-27T22:38:59.720Z,89.67
2017-11-27T22:41:27.590Z,90.03
2017-11-27T22:43:55.450Z,90.23
2017-11-27T22:46:23.087Z,90.33
2017-11-27T22:48:54.759Z,90.09
2017-11-27T22:51:25.551Z,90.54
2017-11-27T22:53:59.297Z,90.36
2017-11-27T22:56:33.323Z,90.76
2017-11-27T22:59:01.057Z,90.69
2017-11-27T23:01:29.146Z,90.44
2017-11-27T23:04:05.816Z,90.31
2017-11-27T23:06:34.725Z,90.39
2017-11-27T23:09:02.794Z,90.54
2017-11-27T23:11:30.439Z,90.90
2017-11-27T23:13:58.029Z,90.77
2017-11-27T23:16:25.978Z,90.91
2017-11-27T23:18:59.167Z,90.98
2017-11-27T23:21:26.852Z,91.01
2017-11-27T23:23:54.485Z,91.12
2017-11-27T23:26:22.366Z,91.15
2017-11-27T23:28:50.017Z,91.21
2017-11-27T23:31:17.893Z,91.04
2017-11-27T23:33:45.488Z,91.01
2017-11-27T23:36:13.094Z,91.05
2017-11-27T23:38:40.820Z,90.90
2017-11-27T23:41:08.481Z,91.14
2017-11-27T23:43:37.857Z,90.89
2017-11-27T23:46:05.583Z,90.87
2017-11-27T23:48:33.844Z,90.48
2017-11-27T23:51:01.531Z,90.70
2017-11-27T23:53:29.526Z,90.60
2017-11-27T23:55:57.399Z,90.13
2017-11-27T23:58:25.028Z,90.48
